Kelley, IA (50134)

5:21 AM CDT on June 19, 2018 (GMT -0500)
North Central Regional Plant Introduction Station | | Change Station

Elev 994 ft 42.01 °N, 93.66 °W | Updated 21 minutes ago

Partly Cloudy
Partly Cloudy
69.4 °F
Feels Like 69.4 °F
N
12
Wind Variable Wind from SE
Gusts 0.0 mph

Today
High -- | Low -- °F
--% Chance of Precip.
Yesterday
High -- | Low -- °F
Precip. -- in
Pressure 29.88 in
Visibility 7.0 miles
Clouds Mostly Cloudy 11000 ft
Dew Point 68 °F
Humidity 96%
Rainfall 0.30 in
Snow Depth Not available.
5:39 AM 8:53 PM
Waxing Crescent, 39% visible
METAR KAMW 190953Z AUTO 13008KT 7SM -RA BKN110 21/21 A2991 RMK AO2 LTG DSNT E TSE02 PRESFR SLP119 P0010 T02110206
Pressure 29.88 in
Visibility 7.0 miles
Clouds Mostly Cloudy 11000 ft
Dew Point 68 °F
Humidity 96%
Rainfall 0.30 in
Snow Depth Not available.
5:39 AM 8:53 PM
Waxing Crescent, 39% visible
METAR KAMW 190953Z AUTO 13008KT 7SM -RA BKN110 21/21 A2991 RMK AO2 LTG DSNT E TSE02 PRESFR SLP119 P0010 T02110206

Get Your Daily Forecast Email!

Thanks for signing up!

Be on the lookout for a verification email in your inbox.

You'll start receiving severe weather alerts in your inbox..

×

10-Day Weather Forecast

Almanac

Astronomy

Jun. 19, 2018 Rise Set
Actual Time
Civil Twilight
Nautical Twilight
Astronomical Twilight
Moon
Length of Visible Light
Length of Day
Tomorrow will be .
, % of the Moon is Illuminated

Today's Extremes

State Highs State Lows

Community

WunderPhotos

Category 6

Welcome to Category 6. This is the collective home for Weather Underground's featured writeups by Dr. Jeff Masters (right), Bob Henson (left), Chris Burt, and other regular contributors.

Nearby

Air Quality

  Air Quality AQ Index Pollutant
Not available.

Snow Depth

Station Depth Elevation

Earthquake Activity

City Distance Mag. Time & Date
Minimum magnitude displayed is 2.5.

Coastal Water Temperatures

Place Temperature

Stations

Nearby Weather Stations

Station Location Temp. Windchill Dew Point Humidity Wind Precip. Elev Updated Type
                   

Watches & Warnings

Flood Watch / Flood Statement
Issued: 5:17 AM CDT Jun. 19, 2018 – National Weather Service

... Flash Flood Watch is cancelled...

The Flash Flood Watch for portions of central Iowa and west
central Iowa has been cancelled. Thunderstorm intensity and
coverage has diminished, therefore the threat of heavy rainfall
this morning has ended and the Flash Flood Watch has been
cancelled.